Time;durP1;ratioP1;P1;durP2;ratioP2;P2;SDS_P1;SDS_P2;PMS_P1;PMS_P2;Temp;Humidity;BMP_temperature;BMP_pressure;BME280_temperature;BME280_humidity;BME280_pressure;Samples;Min_cycle;Max_cycle;Signal;HPM_P1;HPM_P2
2021/01/17 00:00:08;;;;;;;4.68;3.15;;;;;;;22.18;32.33;94646.53;4969574;28;20091;-76
2021/01/17 00:02:34;;;;;;;4.20;2.67;;;;;;;22.10;32.51;94646.38;4969827;28;20023;-76
2021/01/17 00:04:59;;;;;;;4.00;2.80;;;;;;;22.14;32.50;94657.72;4969839;28;20500;-76
2021/01/17 00:07:28;;;;;;;3.60;2.63;;;;;;;22.12;32.41;94657.50;4969861;28;20436;-77
2021/01/17 00:09:54;;;;;;;3.33;2.47;;;;;;;22.08;32.59;94659.75;4969425;28;20511;-76
2021/01/17 00:12:19;;;;;;;3.67;2.78;;;;;;;22.06;32.59;94648.66;4969764;28;20035;-76
2021/01/17 00:14:45;;;;;;;3.95;2.78;;;;;;;22.05;32.64;94641.72;4969512;28;20416;-77
2021/01/17 00:17:10;;;;;;;4.22;3.05;;;;;;;22.05;32.57;94635.56;4969761;28;20492;-77
2021/01/17 00:19:36;;;;;;;4.15;2.60;;;;;;;22.02;32.62;94633.84;4969855;28;20038;-76
2021/01/17 00:22:01;;;;;;;4.15;2.90;;;;;;;21.99;32.69;94641.03;4969658;28;20094;-76
2021/01/17 00:24:27;;;;;;;3.92;2.80;;;;;;;21.88;32.88;94639.66;4969756;28;20030;-74
2021/01/17 00:26:52;;;;;;;3.80;2.72;;;;;;;21.81;32.70;94632.06;4969098;28;20027;-77
2021/01/17 00:29:18;;;;;;;4.80;2.97;;;;;;;21.92;32.99;94642.84;4968224;28;20466;-76
2021/01/17 00:31:43;;;;;;;4.40;2.92;;;;;;;21.90;32.72;94645.31;4969744;28;20023;-76
2021/01/17 00:34:08;;;;;;;3.97;2.85;;;;;;;21.89;32.81;94649.31;4969504;28;20078;-76
2021/01/17 00:36:38;;;;;;;4.55;2.80;;;;;;;21.89;32.79;94644.59;4969419;28;20101;-76
2021/01/17 00:39:05;;;;;;;4.63;2.85;;;;;;;21.89;32.89;94654.75;4969615;28;20496;-76
2021/01/17 00:41:31;;;;;;;4.75;2.90;;;;;;;21.84;32.85;94642.69;4969374;28;20427;-77
2021/01/17 00:43:57;;;;;;;4.20;2.70;;;;;;;21.85;32.76;94644.13;4972236;28;20030;-76
2021/01/17 00:46:22;;;;;;;3.92;2.75;;;;;;;21.67;32.79;94616.88;4973345;28;20081;-77
2021/01/17 00:48:48;;;;;;;4.47;2.88;;;;;;;21.83;32.83;94659.50;4973359;28;20400;-77
2021/01/17 00:51:13;;;;;;;4.38;2.97;;;;;;;21.78;32.89;94643.94;4972771;28;20023;-76
2021/01/17 00:53:39;;;;;;;3.83;2.63;;;;;;;21.78;32.90;94638.50;4972866;28;20022;-77
2021/01/17 00:56:04;;;;;;;4.53;2.80;;;;;;;21.78;32.86;94643.94;4971587;28;20551;-77
2021/01/17 00:58:30;;;;;;;4.38;2.90;;;;;;;21.75;32.93;94644.97;4973315;28;20027;-78
2021/01/17 01:00:55;;;;;;;4.50;3.00;;;;;;;21.75;32.89;94639.53;4971764;28;20492;-77
2021/01/17 01:03:21;;;;;;;3.63;2.85;;;;;;;21.69;32.75;94625.28;4972739;28;20029;-77
2021/01/17 01:05:46;;;;;;;4.30;2.67;;;;;;;21.69;32.71;94636.88;4972462;28;20035;-74
2021/01/17 01:08:12;;;;;;;4.10;2.83;;;;;;;21.60;33.05;94628.31;4972934;28;20035;-77
2021/01/17 01:10:37;;;;;;;3.97;2.75;;;;;;;21.69;33.04;94639.59;4972610;28;20030;-75
2021/01/17 01:13:03;;;;;;;3.70;2.55;;;;;;;21.68;33.04;94642.81;4972215;28;20463;-75
2021/01/17 01:15:28;;;;;;;3.95;3.10;;;;;;;21.69;33.02;94641.59;4972716;28;20030;-75
2021/01/17 01:17:53;;;;;;;3.55;2.58;;;;;;;21.67;32.90;94638.63;4993501;28;20078;-76
2021/01/17 01:20:19;;;;;;;3.90;2.95;;;;;;;21.66;32.91;94648.03;4998535;28;20014;-75
2021/01/17 01:22:47;;;;;;;4.47;2.90;;;;;;;21.66;32.82;94634.44;4997975;28;20058;-77
2021/01/17 01:25:12;;;;;;;4.05;3.00;;;;;;;21.65;32.98;94638.41;4996546;28;20041;-77
2021/01/17 01:27:38;;;;;;;4.07;2.67;;;;;;;21.67;32.86;94638.63;4998801;28;20031;-77
2021/01/17 01:30:04;;;;;;;4.10;3.08;;;;;;;21.68;33.04;94629.22;4979510;28;20035;-76
2021/01/17 01:32:30;;;;;;;4.22;2.42;;;;;;;21.68;32.96;94623.78;4972926;28;20026;-76
2021/01/17 01:34:55;;;;;;;3.90;2.85;;;;;;;21.65;32.94;94630.97;4972858;28;20105;-75
2021/01/17 01:37:22;;;;;;;4.03;2.60;;;;;;;21.62;32.78;94625.81;4972435;28;20479;-77
2021/01/17 01:39:48;;;;;;;3.40;2.47;;;;;;;21.62;32.97;94631.25;4971562;28;20435;-76
2021/01/17 01:42:13;;;;;;;3.95;2.80;;;;;;;21.59;32.95;94632.25;4956193;28;20031;-77
2021/01/17 01:44:39;;;;;;;4.32;2.75;;;;;;;21.59;32.90;94626.84;4973564;28;20515;-77
2021/01/17 01:47:04;;;;;;;3.88;2.70;;;;;;;21.54;32.93;94628.34;4973611;28;20035;-76
2021/01/17 01:49:30;;;;;;;4.20;3.00;;;;;;;21.56;33.02;94636.00;4956276;28;20034;-77
2021/01/17 01:51:56;;;;;;;3.95;2.85;;;;;;;21.54;32.95;94631.06;4971910;28;20471;-77
2021/01/17 01:54:21;;;;;;;4.68;2.90;;;;;;;21.41;32.83;94604.97;4970509;28;20504;-77
2021/01/17 01:56:53;;;;;;;5.03;3.03;;;;;;;21.59;32.93;94626.84;4970698;28;20093;-75
2021/01/17 01:59:18;;;;;;;4.50;2.95;;;;;;;21.55;32.84;94624.41;4955377;28;20085;-77
2021/01/17 02:01:44;;;;;;;4.93;2.80;;;;;;;21.51;33.00;94620.47;4971138;28;20026;-76
2021/01/17 02:04:10;;;;;;;6.38;3.30;;;;;;;21.50;32.92;94619.72;4972789;28;20026;-77
2021/01/17 02:06:36;;;;;;;3.35;2.38;;;;;;;21.51;33.08;94620.47;4972018;28;20431;-77
2021/01/17 02:09:23;;;;;;;4.13;2.80;;;;;;;21.37;33.18;94599.06;4970622;28;20042;-77
2021/01/17 02:12:19;;;;;;;3.88;2.90;;;;;;;21.46;33.15;94626.69;4970536;28;20551;-77
2021/01/17 02:14:46;;;;;;;4.22;2.80;;;;;;;21.37;33.09;94632.41;4971660;28;20463;-76
2021/01/17 02:17:20;;;;;;;4.80;3.10;;;;;;;21.31;33.41;94634.41;4971414;28;20080;-76
2021/01/17 02:19:58;;;;;;;3.50;2.80;;;;;;;21.27;33.30;94622.34;4970577;28;20082;-76
2021/01/17 02:22:23;;;;;;;3.75;2.33;;;;;;;21.26;33.16;94616.19;4971350;28;20051;-76
2021/01/17 02:24:56;;;;;;;3.97;3.00;;;;;;;21.29;33.22;94623.31;4971760;28;20070;-77
2021/01/17 02:27:22;;;;;;;4.55;3.10;;;;;;;21.24;33.25;94602.38;4971141;28;20539;-76
2021/01/17 02:29:47;;;;;;;3.72;2.75;;;;;;;21.18;33.04;94588.13;4969816;28;20031;-76
2021/01/17 02:32:13;;;;;;;4.63;2.70;;;;;;;21.36;33.02;94608.47;4969989;28;20030;-76
2021/01/17 02:34:39;;;;;;;4.50;2.90;;;;;;;21.37;33.13;94610.66;4953836;28;20500;-77
2021/01/17 02:37:10;;;;;;;4.38;2.72;;;;;;;21.32;32.92;94613.44;4953711;28;20027;-77
2021/01/17 02:39:47;;;;;;;4.40;2.97;;;;;;;21.38;33.01;94628.44;4970260;28;20027;-76
2021/01/17 02:42:13;;;;;;;4.65;2.67;;;;;;;21.38;32.94;94623.00;4954705;28;20026;-76
2021/01/17 02:44:38;;;;;;;4.28;2.88;;;;;;;21.39;32.84;94629.19;4953773;28;20027;-76
2021/01/17 02:47:04;;;;;;;3.88;2.83;;;;;;;21.37;32.98;94626.97;4969707;28;20027;-76
2021/01/17 02:49:30;;;;;;;3.72;2.72;;;;;;;21.39;33.01;94623.75;4970793;28;20033;-76
2021/01/17 02:51:56;;;;;;;4.55;2.80;;;;;;;21.41;32.91;94632.13;4969726;28;20092;-77
2021/01/17 02:54:32;;;;;;;4.00;2.72;;;;;;;21.42;32.97;94628.91;4953484;28;20088;-76
2021/01/17 02:57:06;;;;;;;4.13;2.60;;;;;;;21.42;32.92;94628.16;4969406;28;20030;-77
2021/01/17 02:59:37;;;;;;;4.90;2.83;;;;;;;21.38;33.11;94623.00;4970023;28;20117;-76
2021/01/17 03:02:04;;;;;;;4.68;2.85;;;;;;;21.36;33.09;94620.06;4970488;28;20045;-76
2021/01/17 03:04:33;;;;;;;4.88;3.30;;;;;;;21.35;32.95;94618.59;4970937;28;20034;-76
2021/01/17 03:07:01;;;;;;;4.13;2.72;;;;;;;21.35;32.93;94617.88;4970731;28;20109;-76
2021/01/17 03:09:31;;;;;;;4.00;2.78;;;;;;;21.33;32.94;94604.78;4970352;28;20073;-76
2021/01/17 03:12:01;;;;;;;4.50;2.75;;;;;;;21.33;33.15;94599.34;4953567;28;20038;-76
2021/01/17 03:14:26;;;;;;;;;;;;;;;21.33;32.95;94604.78;4970120;28;20064;-76
2021/01/17 03:16:51;;;;;;;4.05;2.58;;;;;;;21.35;33.01;94607.72;4969513;28;20415;-76
2021/01/17 03:19:17;;;;;;;4.25;2.67;;;;;;;21.35;32.98;94607.72;4970307;28;20035;-75
2021/01/17 03:21:42;;;;;;;4.20;2.90;;;;;;;21.36;32.91;94603.78;4970276;28;20086;-75
2021/01/17 03:24:08;;;;;;;4.95;2.90;;;;;;;21.35;32.88;94607.72;4969287;28;20085;-75
2021/01/17 03:26:33;;;;;;;4.00;2.85;;;;;;;21.35;32.92;94598.84;4970156;28;20126;-75
2021/01/17 03:28:59;;;;;;;4.30;2.80;;;;;;;21.33;32.82;94610.22;4970107;28;20030;-77
2021/01/17 03:31:24;;;;;;;3.75;2.78;;;;;;;21.29;33.04;94598.88;4970361;28;20038;-76
2021/01/17 03:33:50;;;;;;;4.35;3.08;;;;;;;21.31;32.78;94607.25;4969942;28;20030;-77
2021/01/17 03:36:15;;;;;;;4.15;2.47;;;;;;;21.28;32.80;94605.56;4969986;28;20035;-76
2021/01/17 03:38:41;;;;;;;3.50;2.60;;;;;;;21.31;33.09;94612.69;4969972;28;20061;-75
2021/01/17 03:41:10;;;;;;;3.95;2.70;;;;;;;21.30;32.95;94603.09;4970006;28;20030;-76
2021/01/17 03:43:35;;;;;;;3.93;3.27;;;;;;;21.30;32.96;94605.81;4970299;28;20050;-76
2021/01/17 03:46:01;;;;;;;4.25;2.70;;;;;;;21.30;32.93;94605.81;4969710;28;20254;-77
2021/01/17 03:48:26;;;;;;;4.22;2.85;;;;;;;21.31;33.06;94596.41;4969955;28;20101;-77
2021/01/17 03:50:52;;;;;;;4.45;2.97;;;;;;;21.32;33.11;94603.31;4970108;28;20038;-76
2021/01/17 03:53:17;;;;;;;4.60;3.05;;;;;;;21.32;32.87;94608.75;4969659;28;20046;-76
2021/01/17 03:55:43;;;;;;;4.10;2.60;;;;;;;21.32;32.98;94608.75;4970164;28;20043;-77
2021/01/17 03:58:08;;;;;;;3.72;2.90;;;;;;;21.33;32.96;94609.47;4969866;28;20043;-76
2021/01/17 04:00:34;;;;;;;4.03;2.88;;;;;;;21.32;33.13;94614.16;4970083;28;20113;-76
2021/01/17 04:02:59;;;;;;;4.32;2.90;;;;;;;21.12;32.85;94598.28;4969767;28;20034;-76
2021/01/17 04:05:25;;;;;;;3.65;2.50;;;;;;;21.18;33.08;94598.97;4969889;28;20027;-76
2021/01/17 04:07:50;;;;;;;3.80;2.75;;;;;;;21.27;32.88;94600.63;4968615;28;20489;-75
2021/01/17 04:10:16;;;;;;;4.18;2.80;;;;;;;21.23;32.87;94606.34;4970928;28;20023;-74
2021/01/17 04:12:41;;;;;;;4.43;2.85;;;;;;;21.25;33.12;94612.00;4969961;28;20038;-77
2021/01/17 04:15:07;;;;;;;3.97;2.97;;;;;;;21.27;32.96;94614.97;4969901;28;20057;-76
2021/01/17 04:17:33;;;;;;;4.05;2.85;;;;;;;21.28;33.01;94610.97;4970051;28;20035;-75
2021/01/17 04:19:58;;;;;;;4.45;3.00;;;;;;;21.24;33.08;94605.09;4973700;28;20036;-75
2021/01/17 04:22:24;;;;;;;3.95;2.80;;;;;;;21.25;32.88;94598.41;4973363;28;20046;-76
2021/01/17 04:24:49;;;;;;;3.78;2.60;;;;;;;21.25;32.95;94606.56;4973228;28;20022;-75
2021/01/17 04:27:15;;;;;;;3.67;2.83;;;;;;;21.11;32.70;94594.06;4973360;28;20022;-75
2021/01/17 04:29:41;;;;;;;3.70;2.70;;;;;;;21.23;33.12;94611.03;4973358;28;20026;-76
2021/01/17 04:32:07;;;;;;;3.58;2.67;;;;;;;21.22;32.92;94610.28;4973656;28;20112;-76
2021/01/17 04:34:33;;;;;;;3.95;2.33;;;;;;;21.22;32.90;94604.84;4973468;28;20026;-77
2021/01/17 04:36:59;;;;;;;3.70;2.70;;;;;;;21.21;32.90;94616.22;4972052;28;20035;-77
2021/01/17 04:39:24;;;;;;;4.57;3.15;;;;;;;21.08;33.04;94589.66;4973366;28;20077;-75
2021/01/17 04:41:50;;;;;;;5.03;3.03;;;;;;;21.12;32.94;94595.56;4973282;28;20026;-77
2021/01/17 04:44:20;;;;;;;4.32;3.05;;;;;;;21.22;32.89;94610.28;4955688;28;20019;-75
2021/01/17 04:46:45;;;;;;;4.50;3.10;;;;;;;21.23;33.06;94616.47;4972199;28;20030;-76
2021/01/17 04:49:11;;;;;;;4.28;2.70;;;;;;;21.25;32.74;94622.13;4971904;28;20019;-76
2021/01/17 04:51:36;;;;;;;3.90;2.95;;;;;;;21.25;32.79;94613.97;4971961;28;20034;-76
2021/01/17 04:54:03;;;;;;;3.70;2.67;;;;;;;21.25;32.90;94620.13;4971856;28;20031;-76
2021/01/17 04:56:33;;;;;;;4.25;2.72;;;;;;;;;;4972705;28;20400;-76
2021/01/17 04:59:11;;;;;;;3.65;2.40;;;;;;;21.20;32.77;94612.78;4973061;28;20093;-73
2021/01/17 05:01:46;;;;;;;4.55;3.22;;;;;;;21.11;32.89;94615.78;4972804;28;20508;-77
2021/01/17 05:04:36;;;;;;;3.92;2.78;;;;;;;21.05;33.10;94623.25;4972362;28;20019;-76
2021/01/17 05:07:22;;;;;;;4.07;2.63;;;;;;;20.97;33.21;94619.59;4972422;28;20130;-76
2021/01/17 05:10:05;;;;;;;6.30;2.80;;;;;;;20.95;33.09;94623.31;4972731;28;20030;-76
2021/01/17 05:12:51;;;;;;;5.10;2.60;;;;;;;20.98;33.21;94618.38;4971581;28;20031;-76
2021/01/17 05:15:19;;;;;;;4.78;3.22;;;;;;;21.01;33.20;94624.75;4973189;28;20030;-75
2021/01/17 05:17:44;;;;;;;3.88;2.45;;;;;;;21.03;33.00;94624.97;4972466;28;20050;-75
2021/01/17 05:20:10;;;;;;;3.63;2.47;;;;;;;21.05;32.93;94625.22;4972393;28;20034;-75
2021/01/17 05:22:36;;;;;;;3.97;2.75;;;;;;;21.06;33.13;94624.72;4972255;28;20038;-77
2021/01/17 05:25:03;;;;;;;5.85;2.80;;;;;;;20.97;33.13;94606.03;4972982;28;20026;-77
2021/01/17 05:27:29;;;;;;;3.83;2.53;;;;;;;21.08;33.12;94622.22;4972154;28;20027;-77
2021/01/17 05:29:54;;;;;;;4.15;2.83;;;;;;;21.09;32.89;94623.72;4971034;28;20030;-76
2021/01/17 05:32:20;;;;;;;3.30;2.58;;;;;;;21.10;32.88;94617.03;4972188;28;20027;-76
2021/01/17 05:34:45;;;;;;;4.05;2.65;;;;;;;21.06;33.06;94611.16;4954765;28;20034;-76
2021/01/17 05:37:14;;;;;;;3.33;2.47;;;;;;;21.10;32.85;94614.31;4940231;28;20390;-77
2021/01/17 05:39:52;;;;;;;3.60;2.70;;;;;;;21.05;33.05;94615.09;4932522;29;20055;-76
2021/01/17 05:42:21;;;;;;;4.55;2.83;;;;;;;21.04;33.15;94627.19;4962224;28;20027;-76
2021/01/17 05:44:46;;;;;;;3.80;2.72;;;;;;;20.97;33.27;94627.72;4946771;28;21427;-73
2021/01/17 05:47:12;;;;;;;3.75;2.58;;;;;;;20.98;33.21;94623.78;4909703;28;20108;-78
2021/01/17 05:49:37;;;;;;;3.42;2.30;;;;;;;21.01;33.38;94630.91;4953524;28;20485;-77
2021/01/17 05:52:09;;;;;;;3.80;2.60;;;;;;;21.06;33.33;94630.16;4952679;28;20444;-78
2021/01/17 05:54:35;;;;;;;4.20;2.78;;;;;;;21.10;33.16;94619.75;4959760;28;20038;-76
2021/01/17 05:57:00;;;;;;;3.95;2.58;;;;;;;21.15;32.97;94632.56;4968568;28;20423;-77
2021/01/17 05:59:38;;;;;;;3.83;2.28;;;;;;;21.24;32.72;94624.13;4969651;28;20026;-75
2021/01/17 06:02:10;;;;;;;3.47;2.45;;;;;;;21.30;32.84;94616.66;4940910;28;20014;-76
2021/01/17 06:04:36;;;;;;;4.53;2.40;;;;;;;21.28;32.31;94597.41;4965295;28;20042;-75
2021/01/17 06:07:01;;;;;;;3.50;2.50;;;;;;;21.46;32.34;94613.09;4952111;28;20427;-77
2021/01/17 06:09:27;;;;;;;4.40;2.40;;;;;;;21.52;32.37;94606.41;4970415;28;20074;-75
2021/01/17 06:11:56;;;;;;;3.75;2.47;;;;;;;21.63;32.08;94611.72;4969992;28;20096;-77
2021/01/17 06:14:25;;;;;;;3.70;2.40;;;;;;;21.75;32.06;94601.47;4968239;28;20034;-74
2021/01/17 06:16:51;;;;;;;4.35;2.67;;;;;;;21.85;32.05;94606.06;4966692;28;20317;-74
2021/01/17 06:19:16;;;;;;;3.92;2.45;;;;;;;21.95;31.85;94616.09;4966396;28;20022;-73
2021/01/17 06:21:47;;;;;;;3.72;2.50;;;;;;;22.05;31.71;94617.25;4966665;28;20070;-75
2021/01/17 06:24:12;;;;;;;3.90;2.50;;;;;;;22.13;31.53;94615.44;4951827;28;20055;-75
2021/01/17 06:26:41;;;;;;;3.47;2.30;;;;;;;22.20;31.46;94614.88;4951018;28;20031;-75
2021/01/17 06:29:09;;;;;;;4.55;2.90;;;;;;;22.29;31.43;94617.28;4939995;28;20455;-75
2021/01/17 06:31:34;;;;;;;3.67;2.92;;;;;;;22.40;31.38;94617.16;4951723;28;20035;-75
2021/01/17 06:34:15;;;;;;;3.80;2.58;;;;;;;22.46;31.18;94609.66;4952991;28;20028;-74
2021/01/17 06:36:48;;;;;;;3.63;2.90;;;;;;;22.60;30.84;94619.38;4951783;28;20055;-74
2021/01/17 06:39:26;;;;;;;4.07;3.10;;;;;;;22.59;31.00;94601.59;4966189;28;20479;-75
2021/01/17 06:41:54;;;;;;;3.35;2.30;;;;;;;22.73;31.01;94619.47;4959342;28;20031;-74
2021/01/17 06:44:29;;;;;;;3.67;2.47;;;;;;;22.78;30.73;94613.97;4950967;28;20023;-74
2021/01/17 06:46:55;;;;;;;3.50;2.63;;;;;;;22.88;30.71;94623.97;4951631;28;20015;-76
2021/01/17 06:49:24;;;;;;;3.50;2.40;;;;;;;22.98;30.37;94627.81;4947670;28;20753;-74
2021/01/17 06:51:50;;;;;;;4.00;2.70;;;;;;;23.04;30.47;94623.03;4961664;28;20034;-73
2021/01/17 06:54:17;;;;;;;3.08;2.47;;;;;;;23.08;30.29;94631.66;4956303;28;20038;-75
2021/01/17 06:56:46;;;;;;;3.83;2.75;;;;;;;23.16;30.27;94637.25;4966833;28;20042;-79
2021/01/17 06:59:11;;;;;;;3.38;2.47;;;;;;;23.09;30.47;94627.69;4967854;28;20029;-76
2021/01/17 07:01:41;;;;;;;3.63;2.50;;;;;;;23.17;30.06;94639.44;4938179;29;20031;-77
2021/01/17 07:04:13;;;;;;;3.97;2.83;;;;;;;23.25;30.27;94645.75;4952169;28;20034;-76
2021/01/17 07:06:53;;;;;;;3.50;2.70;;;;;;;23.28;30.53;94644.72;4967609;28;20050;-73
2021/01/17 07:09:40;;;;;;;3.60;2.45;;;;;;;23.35;30.49;94644.16;4958396;28;20033;-71
2021/01/17 07:12:19;;;;;;;3.83;2.50;;;;;;;23.56;30.11;94642.34;4962765;28;20424;-75
2021/01/17 07:14:44;;;;;;;3.30;2.40;;;;;;;23.62;30.10;94645.72;4951134;28;20401;-73
2021/01/17 07:17:10;;;;;;;4.38;2.55;;;;;;;23.67;30.16;94642.91;4933842;29;20058;-76
2021/01/17 07:19:35;;;;;;;3.67;2.58;;;;;;;23.77;30.00;94646.00;4951654;28;20027;-78
2021/01/17 07:22:03;;;;;;;4.18;2.25;;;;;;;23.80;29.71;94634.06;4951370;28;20050;-78
2021/01/17 07:24:29;;;;;;;3.05;2.38;;;;;;;23.85;30.00;94635.94;4964457;28;20109;-74
2021/01/17 07:27:06;;;;;;;3.13;2.10;;;;;;;23.87;29.66;94634.91;4967191;28;20053;-77
2021/01/17 07:29:31;;;;;;;3.22;2.22;;;;;;;23.81;30.00;94628.09;4968131;28;20027;-77
2021/01/17 07:31:57;;;;;;;3.97;2.88;;;;;;;24.02;29.57;94635.16;4948724;28;20547;-75
2021/01/17 07:34:22;;;;;;;3.90;2.67;;;;;;;24.11;29.24;94636.72;4949817;28;20518;-73
2021/01/17 07:36:49;;;;;;;3.78;2.60;;;;;;;24.09;29.80;94631.78;4963492;28;20423;-72
2021/01/17 07:39:19;;;;;;;4.30;2.83;;;;;;;24.07;29.58;94630.84;4964338;28;20077;-76
2021/01/17 07:41:47;;;;;;;3.90;2.60;;;;;;;24.10;29.42;94625.06;4955674;28;20054;-79
2021/01/17 07:44:15;;;;;;;3.63;2.72;;;;;;;24.20;29.09;94634.34;4964127;28;20066;-78
2021/01/17 07:46:41;;;;;;;4.30;2.80;;;;;;;24.19;29.39;94632.84;4968189;28;20082;-73
2021/01/17 07:49:06;;;;;;;3.45;2.50;;;;;;;24.21;29.30;94624.88;4948909;28;20031;-76
2021/01/17 07:51:32;;;;;;;4.25;3.35;;;;;;;24.22;29.03;94637.25;4945603;28;20027;-75
2021/01/17 07:54:04;;;;;;;4.82;2.78;;;;;;;24.24;29.15;94634.75;4968507;28;20033;-78
2021/01/17 07:56:32;;;;;;;4.68;2.97;;;;;;;24.21;29.35;94632.34;4968008;28;20031;-80
2021/01/17 07:59:02;;;;;;;4.15;2.90;;;;;;;24.29;28.77;94636.66;4967814;28;20471;-80
2021/01/17 08:01:30;;;;;;;4.18;2.60;;;;;;;24.31;28.66;94639.59;4968858;28;20019;-76
2021/01/17 08:04:17;;;;;;;3.60;2.60;;;;;;;24.37;28.83;94642.97;4962336;28;20499;-79
2021/01/17 08:06:42;;;;;;;4.20;2.85;;;;;;;24.41;28.98;94646.84;4962802;28;20038;-77
2021/01/17 08:09:09;;;;;;;5.28;3.20;;;;;;;24.41;28.85;94648.88;4970873;28;20069;-77
2021/01/17 08:11:55;;;;;;;3.65;2.80;;;;;;;24.37;28.85;94648.44;4967880;28;20039;-80
2021/01/17 08:14:29;;;;;;;3.97;3.10;;;;;;;24.45;28.89;94652.00;4965190;28;20034;-84
2021/01/17 08:17:13;;;;;;;3.85;2.78;;;;;;;24.51;28.48;94649.91;4962991;28;20122;-76
2021/01/17 08:19:55;;;;;;;4.35;2.85;;;;;;;24.55;28.83;94650.31;4958587;28;20026;-82
2021/01/17 08:22:23;;;;;;;4.38;2.92;;;;;;;24.54;28.57;94657.78;4962019;28;20050;-81
2021/01/17 08:24:56;;;;;;;4.75;3.10;;;;;;;24.60;28.58;94652.97;4968100;28;20027;-78
2021/01/17 08:27:27;;;;;;;4.15;3.08;;;;;;;24.65;28.77;94652.09;4962923;28;20112;-79
2021/01/17 08:35:23;;;;;;;3.78;2.88;;;;;;;24.69;28.30;94646.31;4966576;28;20041;-78
2021/01/17 08:37:56;;;;;;;4.00;2.72;;;;;;;24.71;28.81;94649.25;4966076;28;20030;-77
2021/01/17 08:40:27;;;;;;;4.80;3.00;;;;;;;24.73;28.35;94652.22;4962201;28;20417;-76
2021/01/17 08:42:54;;;;;;;4.95;3.25;;;;;;;24.58;28.26;94646.53;4954022;28;20523;-76
2021/01/17 08:45:19;;;;;;;4.05;2.90;;;;;;;24.61;28.35;94650.94;4955121;28;20042;-75
2021/01/17 08:47:45;;;;;;;4.70;2.70;;;;;;;24.57;28.76;94661.44;4962967;28;20500;-72
2021/01/17 08:50:29;;;;;;;4.57;3.00;;;;;;;24.70;28.33;94664.19;4954376;28;20535;-76
2021/01/17 08:53:07;;;;;;;4.10;2.88;;;;;;;24.71;28.62;94660.19;4955062;28;20023;-78
2021/01/17 08:55:48;;;;;;;4.70;3.40;;;;;;;24.71;28.31;94660.19;4960822;28;20041;-79
2021/01/17 08:58:15;;;;;;;4.00;2.88;;;;;;;24.74;28.53;94667.31;4959045;28;20023;-81
2021/01/17 09:01:04;;;;;;;4.15;2.85;;;;;;;24.76;28.22;94673.00;4968747;28;20041;-78
2021/01/17 09:03:42;;;;;;;4.88;3.15;;;;;;;24.72;27.61;94675.31;4956192;28;20034;-79
2021/01/17 09:06:13;;;;;;;4.65;3.08;;;;;;;24.74;28.43;94667.31;4947419;28;20579;-80
2021/01/17 09:09:05;;;;;;;3.95;2.72;;;;;;;24.78;28.80;94670.47;4953879;28;20656;-79
2021/01/17 09:11:38;;;;;;;4.63;3.13;;;;;;;24.83;28.44;94668.38;4949472;28;20029;-79
2021/01/17 09:14:28;;;;;;;4.97;2.90;;;;;;;24.84;28.43;94680.03;4953205;28;20042;-79
2021/01/17 09:17:06;;;;;;;4.28;3.00;;;;;;;24.84;28.01;94680.78;4953680;28;20062;-79
2021/01/17 09:19:35;;;;;;;3.45;2.80;;;;;;;24.76;28.35;94667.53;4953797;28;20066;-77
2021/01/17 09:22:02;;;;;;;4.82;2.90;;;;;;;24.89;28.26;94671.72;4936787;29;20774;-78
2021/01/17 09:24:38;;;;;;;4.38;3.30;;;;;;;24.81;28.36;94648.28;4952845;28;20087;-75
2021/01/17 09:27:04;;;;;;;4.38;3.00;;;;;;;24.93;27.88;94663.94;4953170;28;20042;-79
2021/01/17 09:29:32;;;;;;;4.40;3.33;;;;;;;24.93;28.21;94660.47;4963512;28;20074;-74
2021/01/17 09:32:03;;;;;;;4.15;2.67;;;;;;;24.96;27.91;94654.69;4969256;28;20050;-76
2021/01/17 09:34:33;;;;;;;4.47;3.10;;;;;;;24.91;28.10;94639.13;4968203;28;20591;-76
2021/01/17 09:36:59;;;;;;;4.38;3.10;;;;;;;24.98;28.32;94645.97;4956871;28;20129;-76
2021/01/17 09:39:46;;;;;;;3.50;2.90;;;;;;;24.99;27.95;94642.00;4965759;28;20113;-79
2021/01/17 09:42:12;;;;;;;4.90;3.40;;;;;;;24.85;28.01;94621.41;4952884;28;20035;-78
2021/01/17 09:44:38;;;;;;;4.35;3.17;;;;;;;24.85;27.94;94622.13;4951507;28;20019;-75
2021/01/17 09:47:04;;;;;;;3.88;2.80;;;;;;;24.98;27.92;94633.03;4951475;28;20035;-77
2021/01/17 09:49:30;;;;;;;3.88;2.88;;;;;;;25.00;28.10;94627.81;4968126;28;20041;-79
2021/01/17 09:51:55;;;;;;;3.58;2.63;;;;;;;25.03;27.71;94632.22;4961908;28;20035;-75
2021/01/17 09:54:21;;;;;;;3.67;2.78;;;;;;;25.08;28.04;94628.66;4967327;28;20510;-72
2021/01/17 09:56:47;;;;;;;4.45;2.90;;;;;;;25.13;28.11;94625.06;4968561;28;20522;-75
2021/01/17 09:59:22;;;;;;;4.60;2.88;;;;;;;25.06;27.74;94608.56;4968982;28;20026;-75
2021/01/17 10:01:48;;;;;;;4.00;2.78;;;;;;;25.17;27.77;94609.06;4968987;28;20038;-80
2021/01/17 10:04:24;;;;;;;4.30;3.17;;;;;;;25.23;27.64;94611.66;4951376;28;20042;-78
2021/01/17 10:06:54;;;;;;;4.00;2.97;;;;;;;25.20;27.84;94610.75;4962565;28;20031;-77
2021/01/17 10:09:23;;;;;;;;;;;;;;;25.12;27.98;94596.25;4955684;28;20019;-79
2021/01/17 10:11:55;;;;;;;3.63;2.58;;;;;;;25.12;27.77;94590.78;4968795;28;19942;-78
2021/01/17 10:14:22;;;;;;;4.38;3.10;;;;;;;25.24;27.72;94602.94;4955704;28;20096;-79
2021/01/17 10:16:49;;;;;;;4.28;3.35;;;;;;;25.25;27.44;94596.22;4952118;28;20027;-78
2021/01/17 10:19:15;;;;;;;4.30;2.85;;;;;;;25.27;28.14;94596.41;4955976;28;20043;-74
2021/01/17 10:21:40;;;;;;;4.35;3.17;;;;;;;25.36;28.00;94609.63;4965554;28;20058;-78
2021/01/17 10:24:06;;;;;;;4.72;2.88;;;;;;;25.41;27.76;94592.34;4944045;28;20030;-76
2021/01/17 10:26:32;;;;;;;4.30;2.72;;;;;;;25.23;27.70;94579.63;4970755;28;20023;-79
2021/01/17 10:29:05;;;;;;;3.50;2.72;;;;;;;25.39;27.64;94608.56;4964492;28;20034;-78
2021/01/17 10:31:34;;;;;;;4.05;2.80;;;;;;;25.43;28.05;94598.03;4955292;28;20027;-76
2021/01/17 10:33:59;;;;;;;4.78;3.00;;;;;;;25.36;27.93;94593.22;4963010;28;20030;-79
2021/01/17 10:36:25;;;;;;;3.65;2.83;;;;;;;25.29;28.23;94588.44;4966997;28;20035;-78
2021/01/17 10:38:50;;;;;;;4.18;2.88;;;;;;;25.30;28.17;94573.47;4953667;28;20034;-86
2021/01/17 10:41:24;;;;;;;4.05;2.95;;;;;;;25.40;28.45;94590.91;4965589;28;20492;-78
2021/01/17 10:43:49;;;;;;;5.40;3.20;;;;;;;25.34;28.63;94595.75;4950482;28;20023;-78
2021/01/17 10:46:16;;;;;;;5.85;3.00;;;;;;;25.33;28.59;94586.84;4935406;28;20031;-78
2021/01/17 10:48:47;;;;;;;5.32;2.90;;;;;;;25.35;28.44;94591.75;4949527;28;20033;-75
2021/01/17 10:51:14;;;;;;;3.88;2.65;;;;;;;25.36;28.75;94580.28;4964491;28;20839;-76
2021/01/17 10:53:46;;;;;;;4.55;2.60;;;;;;;25.42;28.70;94586.34;4961251;28;20090;-74
2021/01/17 10:56:11;;;;;;;4.07;3.00;;;;;;;25.26;28.98;94567.63;4951301;28;20039;-76
2021/01/17 10:58:40;;;;;;;3.85;3.13;;;;;;;25.32;28.96;94570.97;4951069;28;20031;-77
2021/01/17 11:01:06;;;;;;;5.13;3.00;;;;;;;25.36;28.81;94576.81;4950583;28;20484;-76
2021/01/17 11:03:35;;;;;;;3.75;2.83;;;;;;;25.38;29.11;94564.09;4951187;28;20019;-76
2021/01/17 11:06:19;;;;;;;3.80;3.00;;;;;;;25.37;29.29;94567.34;4952130;28;20026;-77
2021/01/17 11:08:57;;;;;;;4.57;3.10;;;;;;;25.35;29.43;94575.34;4951651;28;20063;-77
2021/01/17 11:11:25;;;;;;;3.85;2.50;;;;;;;25.34;28.87;94573.88;4950980;28;20027;-76
2021/01/17 11:14:00;;;;;;;4.28;2.80;;;;;;;25.34;29.09;94569.16;4953397;28;20031;-77
2021/01/17 11:16:52;;;;;;;3.97;2.85;;;;;;;25.27;29.25;94573.81;4951841;28;20398;-75
2021/01/17 11:19:18;;;;;;;4.28;2.88;;;;;;;25.44;28.66;94566.69;4962049;28;20043;-74
2021/01/17 11:21:45;;;;;;;4.18;2.80;;;;;;;25.48;29.14;94575.28;4964602;28;20421;-77
2021/01/17 11:24:11;;;;;;;5.10;2.85;;;;;;;25.51;29.09;94566.03;4950519;28;20043;-75
2021/01/17 11:26:37;;;;;;;4.57;2.90;;;;;;;25.52;28.89;94579.16;4933606;28;20031;-76
2021/01/17 11:29:04;;;;;;;4.38;2.67;;;;;;;25.50;28.51;94553.59;4962935;28;20033;-74
2021/01/17 11:31:29;;;;;;;3.28;2.50;;;;;;;25.56;28.90;94573.34;4968077;28;20025;-73
2021/01/17 11:33:55;;;;;;;4.93;3.50;;;;;;;25.58;27.45;94568.09;4952188;28;20028;-74
2021/01/17 11:36:27;;;;;;;4.50;2.95;;;;;;;25.53;28.17;94558.00;4950701;28;20038;-74
2021/01/17 11:38:57;;;;;;;4.07;2.92;;;;;;;25.45;28.49;94541.53;4965256;28;20422;-78
2021/01/17 11:41:23;;;;;;;;;;;;;;;25.61;28.70;94558.81;4961279;28;20376;-79
2021/01/17 11:43:49;;;;;;;4.13;2.97;;;;;;;25.64;28.27;94552.28;4952552;28;20387;-78
2021/01/17 11:46:15;;;;;;;4.47;2.95;;;;;;;25.63;28.46;94556.28;4953127;28;20019;-75